sensor_id;sensor_type;location;lat;lon;timestamp;P1;durP1;ratioP1;P2;durP2;ratioP2
60614;SDS011;46444;45.590;5.284;2023-03-23T00:01:06;5.00;;;1.83;;
60614;SDS011;46444;45.590;5.284;2023-03-23T00:03:35;4.05;;;2.00;;
60614;SDS011;46444;45.590;5.284;2023-03-23T00:06:03;2.97;;;1.77;;
60614;SDS011;46444;45.590;5.284;2023-03-23T00:08:32;2.65;;;1.70;;
60614;SDS011;46444;45.590;5.284;2023-03-23T00:11:10;4.47;;;1.98;;
60614;SDS011;46444;45.590;5.284;2023-03-23T00:13:44;3.55;;;1.70;;
60614;SDS011;46444;45.590;5.284;2023-03-23T00:16:11;2.13;;;1.70;;
60614;SDS011;46444;45.590;5.284;2023-03-23T00:19:05;2.63;;;1.60;;
60614;SDS011;46444;45.590;5.284;2023-03-23T00:21:32;3.58;;;1.70;;
60614;SDS011;46444;45.590;5.284;2023-03-23T00:26:38;2.60;;;1.73;;
60614;SDS011;46444;45.590;5.284;2023-03-23T00:29:05;2.45;;;1.55;;
60614;SDS011;46444;45.590;5.284;2023-03-23T00:31:33;2.20;;;1.48;;
60614;SDS011;46444;45.590;5.284;2023-03-23T00:34:06;2.53;;;1.50;;
60614;SDS011;46444;45.590;5.284;2023-03-23T00:36:56;2.42;;;1.90;;
60614;SDS011;46444;45.590;5.284;2023-03-23T00:39:22;2.80;;;1.55;;
60614;SDS011;46444;45.590;5.284;2023-03-23T00:41:52;2.80;;;1.70;;
60614;SDS011;46444;45.590;5.284;2023-03-23T00:44:18;3.97;;;2.03;;
60614;SDS011;46444;45.590;5.284;2023-03-23T00:46:47;3.78;;;1.80;;
60614;SDS011;46444;45.590;5.284;2023-03-23T00:49:15;1.75;;;1.58;;
60614;SDS011;46444;45.590;5.284;2023-03-23T00:51:43;2.50;;;1.70;;
60614;SDS011;46444;45.590;5.284;2023-03-23T00:54:09;1.90;;;1.60;;
60614;SDS011;46444;45.590;5.284;2023-03-23T00:56:35;4.97;;;2.05;;
60614;SDS011;46444;45.590;5.284;2023-03-23T00:59:02;4.75;;;1.85;;
60614;SDS011;46444;45.590;5.284;2023-03-23T01:01:46;4.18;;;1.80;;
60614;SDS011;46444;45.590;5.284;2023-03-23T01:04:12;2.05;;;1.55;;
60614;SDS011;46444;45.590;5.284;2023-03-23T01:06:40;3.08;;;1.67;;
60614;SDS011;46444;45.590;5.284;2023-03-23T01:09:08;2.90;;;1.70;;
60614;SDS011;46444;45.590;5.284;2023-03-23T01:11:38;2.92;;;1.70;;
60614;SDS011;46444;45.590;5.284;2023-03-23T01:14:04;4.25;;;1.98;;
60614;SDS011;46444;45.590;5.284;2023-03-23T01:16:30;2.58;;;1.85;;
60614;SDS011;46444;45.590;5.284;2023-03-23T01:18:55;2.25;;;1.52;;
60614;SDS011;46444;45.590;5.284;2023-03-23T01:21:21;3.90;;;2.03;;
60614;SDS011;46444;45.590;5.284;2023-03-23T01:23:49;2.28;;;1.42;;
60614;SDS011;46444;45.590;5.284;2023-03-23T01:26:16;2.67;;;1.70;;
60614;SDS011;46444;45.590;5.284;2023-03-23T01:28:46;2.25;;;1.75;;
60614;SDS011;46444;45.590;5.284;2023-03-23T01:31:14;2.88;;;1.70;;
60614;SDS011;46444;45.590;5.284;2023-03-23T01:33:59;3.55;;;1.75;;
60614;SDS011;46444;45.590;5.284;2023-03-23T01:36:57;4.47;;;1.38;;
60614;SDS011;46444;45.590;5.284;2023-03-23T01:42:59;2.30;;;1.80;;
60614;SDS011;46444;45.590;5.284;2023-03-23T01:45:27;2.67;;;1.52;;
60614;SDS011;46444;45.590;5.284;2023-03-23T01:48:01;2.53;;;1.58;;
60614;SDS011;46444;45.590;5.284;2023-03-23T01:50:34;2.30;;;1.70;;
60614;SDS011;46444;45.590;5.284;2023-03-23T01:53:06;5.15;;;1.80;;
60614;SDS011;46444;45.590;5.284;2023-03-23T01:55:33;2.70;;;1.83;;
60614;SDS011;46444;45.590;5.284;2023-03-23T01:58:05;2.53;;;1.58;;
60614;SDS011;46444;45.590;5.284;2023-03-23T02:00:31;3.05;;;1.70;;
60614;SDS011;46444;45.590;5.284;2023-03-23T02:03:04;2.85;;;1.77;;
60614;SDS011;46444;45.590;5.284;2023-03-23T02:05:35;2.58;;;1.60;;
60614;SDS011;46444;45.590;5.284;2023-03-23T02:11:19;3.45;;;2.00;;
60614;SDS011;46444;45.590;5.284;2023-03-23T02:13:46;2.85;;;1.88;;
60614;SDS011;46444;45.590;5.284;2023-03-23T02:22:30;2.70;;;1.92;;
60614;SDS011;46444;45.590;5.284;2023-03-23T02:28:25;3.00;;;1.92;;
60614;SDS011;46444;45.590;5.284;2023-03-23T02:37:32;3.28;;;1.95;;
60614;SDS011;46444;45.590;5.284;2023-03-23T02:40:12;4.68;;;1.77;;
60614;SDS011;46444;45.590;5.284;2023-03-23T02:42:46;2.60;;;1.80;;
60614;SDS011;46444;45.590;5.284;2023-03-23T02:48:22;1.95;;;1.75;;
60614;SDS011;46444;45.590;5.284;2023-03-23T02:50:52;1.77;;;1.67;;
60614;SDS011;46444;45.590;5.284;2023-03-23T02:53:20;2.55;;;1.98;;
60614;SDS011;46444;45.590;5.284;2023-03-23T02:55:48;3.53;;;1.85;;
60614;SDS011;46444;45.590;5.284;2023-03-23T02:58:27;1.88;;;1.70;;
60614;SDS011;46444;45.590;5.284;2023-03-23T03:00:56;2.95;;;1.92;;
60614;SDS011;46444;45.590;5.284;2023-03-23T03:03:25;4.00;;;2.20;;
60614;SDS011;46444;45.590;5.284;2023-03-23T03:06:10;2.97;;;1.80;;
60614;SDS011;46444;45.590;5.284;2023-03-23T03:09:07;2.53;;;2.05;;
60614;SDS011;46444;45.590;5.284;2023-03-23T03:11:55;2.63;;;1.85;;
60614;SDS011;46444;45.590;5.284;2023-03-23T03:14:29;2.45;;;2.05;;
60614;SDS011;46444;45.590;5.284;2023-03-23T03:19:50;2.85;;;1.98;;
60614;SDS011;46444;45.590;5.284;2023-03-23T03:22:22;3.33;;;2.10;;
60614;SDS011;46444;45.590;5.284;2023-03-23T03:24:48;2.95;;;1.70;;
60614;SDS011;46444;45.590;5.284;2023-03-23T03:27:17;2.60;;;1.80;;
60614;SDS011;46444;45.590;5.284;2023-03-23T03:29:47;3.40;;;2.40;;
60614;SDS011;46444;45.590;5.284;2023-03-23T03:32:19;5.07;;;2.33;;
60614;SDS011;46444;45.590;5.284;2023-03-23T03:34:49;3.55;;;1.70;;
60614;SDS011;46444;45.590;5.284;2023-03-23T03:37:47;2.97;;;2.30;;
60614;SDS011;46444;45.590;5.284;2023-03-23T03:40:14;6.13;;;2.50;;
60614;SDS011;46444;45.590;5.284;2023-03-23T03:42:42;3.45;;;2.15;;
60614;SDS011;46444;45.590;5.284;2023-03-23T03:45:11;3.42;;;2.50;;
60614;SDS011;46444;45.590;5.284;2023-03-23T03:47:41;3.85;;;2.25;;
60614;SDS011;46444;45.590;5.284;2023-03-23T03:50:07;3.00;;;2.20;;
60614;SDS011;46444;45.590;5.284;2023-03-23T03:52:33;5.15;;;2.00;;
60614;SDS011;46444;45.590;5.284;2023-03-23T03:54:59;3.20;;;2.05;;
60614;SDS011;46444;45.590;5.284;2023-03-23T03:57:25;5.40;;;2.10;;
60614;SDS011;46444;45.590;5.284;2023-03-23T03:59:56;2.70;;;1.95;;
60614;SDS011;46444;45.590;5.284;2023-03-23T04:02:41;3.33;;;2.25;;
60614;SDS011;46444;45.590;5.284;2023-03-23T04:05:10;2.15;;;1.95;;
60614;SDS011;46444;45.590;5.284;2023-03-23T04:07:36;3.33;;;2.38;;
60614;SDS011;46444;45.590;5.284;2023-03-23T04:10:04;2.45;;;2.25;;
60614;SDS011;46444;45.590;5.284;2023-03-23T04:12:33;3.63;;;2.00;;
60614;SDS011;46444;45.590;5.284;2023-03-23T04:14:59;2.33;;;2.00;;
60614;SDS011;46444;45.590;5.284;2023-03-23T04:17:25;4.30;;;2.30;;
60614;SDS011;46444;45.590;5.284;2023-03-23T04:19:54;3.13;;;2.10;;
60614;SDS011;46444;45.590;5.284;2023-03-23T04:22:23;3.30;;;2.03;;
60614;SDS011;46444;45.590;5.284;2023-03-23T04:24:58;3.78;;;1.77;;
60614;SDS011;46444;45.590;5.284;2023-03-23T04:27:25;3.10;;;1.88;;
60614;SDS011;46444;45.590;5.284;2023-03-23T04:29:53;2.13;;;1.70;;
60614;SDS011;46444;45.590;5.284;2023-03-23T04:32:20;2.67;;;1.90;;
60614;SDS011;46444;45.590;5.284;2023-03-23T04:34:46;2.35;;;2.03;;
60614;SDS011;46444;45.590;5.284;2023-03-23T04:37:11;3.10;;;1.70;;
60614;SDS011;46444;45.590;5.284;2023-03-23T04:39:59;3.10;;;2.33;;
60614;SDS011;46444;45.590;5.284;2023-03-23T04:42:47;3.25;;;2.20;;
60614;SDS011;46444;45.590;5.284;2023-03-23T04:45:16;2.33;;;2.03;;
60614;SDS011;46444;45.590;5.284;2023-03-23T04:47:50;2.20;;;1.98;;
60614;SDS011;46444;45.590;5.284;2023-03-23T04:50:22;3.67;;;2.33;;
60614;SDS011;46444;45.590;5.284;2023-03-23T04:52:52;4.57;;;2.33;;
60614;SDS011;46444;45.590;5.284;2023-03-23T04:55:21;3.67;;;2.08;;
60614;SDS011;46444;45.590;5.284;2023-03-23T04:57:47;2.42;;;2.22;;
60614;SDS011;46444;45.590;5.284;2023-03-23T05:00:13;2.63;;;2.10;;
60614;SDS011;46444;45.590;5.284;2023-03-23T05:02:41;3.08;;;2.03;;
60614;SDS011;46444;45.590;5.284;2023-03-23T05:05:12;2.85;;;2.22;;
60614;SDS011;46444;45.590;5.284;2023-03-23T05:07:39;8.73;;;2.80;;
60614;SDS011;46444;45.590;5.284;2023-03-23T05:10:09;4.18;;;2.30;;
60614;SDS011;46444;45.590;5.284;2023-03-23T05:12:40;4.93;;;2.08;;
60614;SDS011;46444;45.590;5.284;2023-03-23T05:15:07;3.38;;;2.08;;
60614;SDS011;46444;45.590;5.284;2023-03-23T05:17:33;3.67;;;2.45;;
60614;SDS011;46444;45.590;5.284;2023-03-23T05:19:59;5.50;;;2.50;;
60614;SDS011;46444;45.590;5.284;2023-03-23T05:22:43;2.40;;;2.20;;
60614;SDS011;46444;45.590;5.284;2023-03-23T05:25:24;2.42;;;2.05;;
60614;SDS011;46444;45.590;5.284;2023-03-23T05:28:13;3.35;;;2.50;;
60614;SDS011;46444;45.590;5.284;2023-03-23T05:30:41;4.07;;;2.50;;
60614;SDS011;46444;45.590;5.284;2023-03-23T05:33:54;2.80;;;2.38;;
60614;SDS011;46444;45.590;5.284;2023-03-23T05:36:45;3.55;;;2.58;;
60614;SDS011;46444;45.590;5.284;2023-03-23T05:39:20;3.35;;;2.67;;
60614;SDS011;46444;45.590;5.284;2023-03-23T05:41:46;2.70;;;2.50;;
60614;SDS011;46444;45.590;5.284;2023-03-23T05:44:11;3.25;;;2.88;;
60614;SDS011;46444;45.590;5.284;2023-03-23T05:46:38;3.78;;;2.80;;
60614;SDS011;46444;45.590;5.284;2023-03-23T05:49:04;4.43;;;2.80;;
60614;SDS011;46444;45.590;5.284;2023-03-23T05:51:29;4.38;;;2.83;;
60614;SDS011;46444;45.590;5.284;2023-03-23T05:53:58;6.28;;;3.22;;
60614;SDS011;46444;45.590;5.284;2023-03-23T05:59:00;3.85;;;3.00;;
60614;SDS011;46444;45.590;5.284;2023-03-23T06:02:09;5.00;;;3.13;;
60614;SDS011;46444;45.590;5.284;2023-03-23T06:04:50;4.22;;;3.30;;
60614;SDS011;46444;45.590;5.284;2023-03-23T06:07:25;4.35;;;2.92;;
60614;SDS011;46444;45.590;5.284;2023-03-23T06:10:15;4.60;;;2.90;;
60614;SDS011;46444;45.590;5.284;2023-03-23T06:12:41;4.78;;;3.05;;
60614;SDS011;46444;45.590;5.284;2023-03-23T06:20:36;5.78;;;3.22;;
60614;SDS011;46444;45.590;5.284;2023-03-23T06:23:01;5.63;;;3.45;;
60614;SDS011;46444;45.590;5.284;2023-03-23T06:25:29;4.70;;;3.35;;
60614;SDS011;46444;45.590;5.284;2023-03-23T06:27:54;5.40;;;3.13;;
60614;SDS011;46444;45.590;5.284;2023-03-23T06:30:20;2.85;;;2.50;;
60614;SDS011;46444;45.590;5.284;2023-03-23T06:32:46;3.72;;;2.80;;
60614;SDS011;46444;45.590;5.284;2023-03-23T06:35:13;4.40;;;3.28;;
60614;SDS011;46444;45.590;5.284;2023-03-23T06:37:40;3.40;;;3.10;;
60614;SDS011;46444;45.590;5.284;2023-03-23T06:40:06;3.20;;;2.90;;
60614;SDS011;46444;45.590;5.284;2023-03-23T06:42:32;4.97;;;2.78;;
60614;SDS011;46444;45.590;5.284;2023-03-23T06:52:47;3.30;;;3.00;;
60614;SDS011;46444;45.590;5.284;2023-03-23T06:55:14;4.78;;;3.00;;
60614;SDS011;46444;45.590;5.284;2023-03-23T06:57:40;4.38;;;2.95;;
60614;SDS011;46444;45.590;5.284;2023-03-23T07:00:06;5.63;;;3.10;;
60614;SDS011;46444;45.590;5.284;2023-03-23T07:02:33;4.55;;;3.30;;
60614;SDS011;46444;45.590;5.284;2023-03-23T07:04:59;5.30;;;3.08;;
60614;SDS011;46444;45.590;5.284;2023-03-23T07:07:25;9.88;;;3.42;;
60614;SDS011;46444;45.590;5.284;2023-03-23T07:09:51;4.30;;;3.42;;
60614;SDS011;46444;45.590;5.284;2023-03-23T07:12:16;4.85;;;3.20;;
60614;SDS011;46444;45.590;5.284;2023-03-23T07:14:41;5.82;;;3.47;;
60614;SDS011;46444;45.590;5.284;2023-03-23T07:17:07;3.95;;;3.50;;
60614;SDS011;46444;45.590;5.284;2023-03-23T07:19:32;4.57;;;3.97;;
60614;SDS011;46444;45.590;5.284;2023-03-23T07:21:58;4.10;;;3.70;;
60614;SDS011;46444;45.590;5.284;2023-03-23T07:24:23;4.30;;;3.90;;
60614;SDS011;46444;45.590;5.284;2023-03-23T07:26:49;4.78;;;3.78;;
60614;SDS011;46444;45.590;5.284;2023-03-23T07:29:15;4.28;;;3.88;;
60614;SDS011;46444;45.590;5.284;2023-03-23T07:31:41;4.88;;;4.38;;
60614;SDS011;46444;45.590;5.284;2023-03-23T07:34:07;4.47;;;4.05;;
60614;SDS011;46444;45.590;5.284;2023-03-23T07:36:33;7.85;;;4.40;;
60614;SDS011;46444;45.590;5.284;2023-03-23T07:39:02;4.88;;;4.20;;
60614;SDS011;46444;45.590;5.284;2023-03-23T07:41:27;7.70;;;4.45;;
60614;SDS011;46444;45.590;5.284;2023-03-23T07:43:53;6.90;;;4.65;;
60614;SDS011;46444;45.590;5.284;2023-03-23T07:46:18;4.75;;;4.35;;
60614;SDS011;46444;45.590;5.284;2023-03-23T07:48:44;4.88;;;4.45;;
60614;SDS011;46444;45.590;5.284;2023-03-23T07:51:09;6.93;;;4.72;;
60614;SDS011;46444;45.590;5.284;2023-03-23T07:53:35;6.93;;;5.13;;
60614;SDS011;46444;45.590;5.284;2023-03-23T07:56:00;6.28;;;4.82;;
60614;SDS011;46444;45.590;5.284;2023-03-23T07:58:28;5.80;;;5.35;;
60614;SDS011;46444;45.590;5.284;2023-03-23T08:00:54;6.75;;;5.32;;
60614;SDS011;46444;45.590;5.284;2023-03-23T08:03:21;6.32;;;5.50;;
60614;SDS011;46444;45.590;5.284;2023-03-23T08:05:47;6.07;;;5.45;;
60614;SDS011;46444;45.590;5.284;2023-03-23T08:08:12;5.88;;;4.68;;
60614;SDS011;46444;45.590;5.284;2023-03-23T08:10:38;5.85;;;5.25;;
60614;SDS011;46444;45.590;5.284;2023-03-23T08:13:04;7.38;;;4.55;;
60614;SDS011;46444;45.590;5.284;2023-03-23T08:15:31;6.15;;;5.63;;
60614;SDS011;46444;45.590;5.284;2023-03-23T08:17:57;7.28;;;5.05;;
60614;SDS011;46444;45.590;5.284;2023-03-23T08:20:23;9.25;;;5.50;;
60614;SDS011;46444;45.590;5.284;2023-03-23T08:22:53;6.13;;;5.60;;
60614;SDS011;46444;45.590;5.284;2023-03-23T08:25:20;6.67;;;6.03;;
60614;SDS011;46444;45.590;5.284;2023-03-23T08:27:46;8.10;;;6.07;;
60614;SDS011;46444;45.590;5.284;2023-03-23T08:30:13;6.18;;;5.57;;
60614;SDS011;46444;45.590;5.284;2023-03-23T08:32:40;6.18;;;5.68;;
60614;SDS011;46444;45.590;5.284;2023-03-23T08:35:08;6.53;;;5.57;;
60614;SDS011;46444;45.590;5.284;2023-03-23T08:37:36;12.95;;;6.63;;
60614;SDS011;46444;45.590;5.284;2023-03-23T08:40:02;6.68;;;6.07;;
60614;SDS011;46444;45.590;5.284;2023-03-23T08:42:35;6.93;;;6.13;;
60614;SDS011;46444;45.590;5.284;2023-03-23T08:45:03;7.18;;;5.97;;
60614;SDS011;46444;45.590;5.284;2023-03-23T08:47:30;10.35;;;6.50;;
60614;SDS011;46444;45.590;5.284;2023-03-23T08:49:56;7.97;;;6.03;;
60614;SDS011;46444;45.590;5.284;2023-03-23T08:52:21;8.75;;;6.25;;
60614;SDS011;46444;45.590;5.284;2023-03-23T08:54:46;15.18;;;6.38;;
60614;SDS011;46444;45.590;5.284;2023-03-23T08:57:12;7.28;;;5.90;;
60614;SDS011;46444;45.590;5.284;2023-03-23T08:59:39;7.80;;;5.82;;
60614;SDS011;46444;45.590;5.284;2023-03-23T09:02:06;7.35;;;6.47;;
60614;SDS011;46444;45.590;5.284;2023-03-23T09:04:39;8.05;;;6.20;;
60614;SDS011;46444;45.590;5.284;2023-03-23T09:07:07;7.40;;;6.28;;
60614;SDS011;46444;45.590;5.284;2023-03-23T09:09:34;7.22;;;6.07;;
60614;SDS011;46444;45.590;5.284;2023-03-23T09:12:00;13.50;;;11.50;;
60614;SDS011;46444;45.590;5.284;2023-03-23T09:14:25;7.10;;;5.75;;
60614;SDS011;46444;45.590;5.284;2023-03-23T09:16:51;7.45;;;6.32;;
60614;SDS011;46444;45.590;5.284;2023-03-23T09:19:17;6.35;;;5.75;;
60614;SDS011;46444;45.590;5.284;2023-03-23T09:21:42;8.38;;;6.00;;
60614;SDS011;46444;45.590;5.284;2023-03-23T09:24:10;10.00;;;7.05;;
60614;SDS011;46444;45.590;5.284;2023-03-23T09:26:36;11.60;;;7.22;;
60614;SDS011;46444;45.590;5.284;2023-03-23T09:29:01;10.63;;;6.93;;
60614;SDS011;46444;45.590;5.284;2023-03-23T09:31:27;9.23;;;6.88;;
60614;SDS011;46444;45.590;5.284;2023-03-23T09:33:53;7.68;;;6.88;;
60614;SDS011;46444;45.590;5.284;2023-03-23T09:36:22;9.23;;;7.20;;
60614;SDS011;46444;45.590;5.284;2023-03-23T09:38:48;9.50;;;7.40;;
60614;SDS011;46444;45.590;5.284;2023-03-23T09:49:02;11.07;;;8.93;;
60614;SDS011;46444;45.590;5.284;2023-03-23T09:51:51;13.98;;;8.20;;
60614;SDS011;46444;45.590;5.284;2023-03-23T09:56:48;9.88;;;8.38;;
60614;SDS011;46444;45.590;5.284;2023-03-23T09:59:17;9.82;;;7.95;;
60614;SDS011;46444;45.590;5.284;2023-03-23T10:01:48;9.93;;;7.15;;
60614;SDS011;46444;45.590;5.284;2023-03-23T10:06:57;11.02;;;6.93;;
60614;SDS011;46444;45.590;5.284;2023-03-23T10:09:25;9.75;;;7.18;;
60614;SDS011;46444;45.590;5.284;2023-03-23T10:12:00;12.27;;;7.43;;
60614;SDS011;46444;45.590;5.284;2023-03-23T10:17:22;9.35;;;7.00;;
60614;SDS011;46444;45.590;5.284;2023-03-23T10:22:47;9.82;;;6.72;;
60614;SDS011;46444;45.590;5.284;2023-03-23T10:25:35;8.63;;;6.80;;
60614;SDS011;46444;45.590;5.284;2023-03-23T10:31:13;7.55;;;6.03;;
60614;SDS011;46444;45.590;5.284;2023-03-23T10:33:36;9.23;;;6.93;;
60614;SDS011;46444;45.590;5.284;2023-03-23T10:36:06;8.63;;;6.55;;
60614;SDS011;46444;45.590;5.284;2023-03-23T10:38:48;9.63;;;7.93;;
60614;SDS011;46444;45.590;5.284;2023-03-23T10:41:18;6.65;;;5.75;;
60614;SDS011;46444;45.590;5.284;2023-03-23T10:43:45;6.85;;;5.53;;
60614;SDS011;46444;45.590;5.284;2023-03-23T10:49:02;6.35;;;4.45;;
60614;SDS011;46444;45.590;5.284;2023-03-23T10:51:35;8.75;;;5.22;;
60614;SDS011;46444;45.590;5.284;2023-03-23T10:54:03;6.72;;;4.88;;
60614;SDS011;46444;45.590;5.284;2023-03-23T10:56:42;6.13;;;5.35;;
60614;SDS011;46444;45.590;5.284;2023-03-23T10:59:15;8.77;;;5.18;;
60614;SDS011;46444;45.590;5.284;2023-03-23T11:01:45;11.27;;;6.60;;
60614;SDS011;46444;45.590;5.284;2023-03-23T11:04:15;9.05;;;6.60;;
60614;SDS011;46444;45.590;5.284;2023-03-23T11:06:45;9.13;;;7.97;;
60614;SDS011;46444;45.590;5.284;2023-03-23T11:11:54;12.60;;;8.75;;
60614;SDS011;46444;45.590;5.284;2023-03-23T11:14:27;11.50;;;10.18;;
60614;SDS011;46444;45.590;5.284;2023-03-23T11:16:55;14.73;;;12.00;;
60614;SDS011;46444;45.590;5.284;2023-03-23T11:24:25;11.77;;;10.57;;
60614;SDS011;46444;45.590;5.284;2023-03-23T11:26:51;12.05;;;10.88;;
60614;SDS011;46444;45.590;5.284;2023-03-23T11:29:22;9.80;;;8.20;;
60614;SDS011;46444;45.590;5.284;2023-03-23T11:31:50;11.07;;;9.38;;
60614;SDS011;46444;45.590;5.284;2023-03-23T11:34:20;11.52;;;8.50;;
60614;SDS011;46444;45.590;5.284;2023-03-23T11:39:22;10.20;;;8.77;;
60614;SDS011;46444;45.590;5.284;2023-03-23T11:41:49;10.02;;;9.10;;
60614;SDS011;46444;45.590;5.284;2023-03-23T11:44:15;12.23;;;8.35;;
60614;SDS011;46444;45.590;5.284;2023-03-23T11:47:01;8.73;;;7.82;;
60614;SDS011;46444;45.590;5.284;2023-03-23T11:49:39;9.98;;;7.97;;
60614;SDS011;46444;45.590;5.284;2023-03-23T11:52:18;7.18;;;6.47;;
60614;SDS011;46444;45.590;5.284;2023-03-23T11:54:59;9.15;;;6.00;;
60614;SDS011;46444;45.590;5.284;2023-03-23T11:57:30;8.15;;;6.45;;
60614;SDS011;46444;45.590;5.284;2023-03-23T11:59:55;8.55;;;7.53;;
60614;SDS011;46444;45.590;5.284;2023-03-23T12:16:23;8.93;;;6.57;;
60614;SDS011;46444;45.590;5.284;2023-03-23T12:19:15;7.07;;;6.28;;
60614;SDS011;46444;45.590;5.284;2023-03-23T12:21:58;8.55;;;7.60;;
60614;SDS011;46444;45.590;5.284;2023-03-23T12:30:47;8.90;;;6.63;;
60614;SDS011;46444;45.590;5.284;2023-03-23T12:33:33;7.95;;;6.80;;
60614;SDS011;46444;45.590;5.284;2023-03-23T12:41:23;9.65;;;7.78;;
60614;SDS011;46444;45.590;5.284;2023-03-23T12:44:02;11.20;;;8.80;;
60614;SDS011;46444;45.590;5.284;2023-03-23T12:49:15;12.20;;;8.00;;
60614;SDS011;46444;45.590;5.284;2023-03-23T12:54:33;11.32;;;8.52;;
60614;SDS011;46444;45.590;5.284;2023-03-23T13:00:02;12.60;;;9.00;;
60614;SDS011;46444;45.590;5.284;2023-03-23T13:02:46;11.55;;;10.13;;
60614;SDS011;46444;45.590;5.284;2023-03-23T13:10:58;12.00;;;10.48;;
60614;SDS011;46444;45.590;5.284;2023-03-23T13:13:44;12.98;;;10.73;;
60614;SDS011;46444;45.590;5.284;2023-03-23T13:21:20;12.35;;;9.75;;
60614;SDS011;46444;45.590;5.284;2023-03-23T13:23:54;11.07;;;9.80;;
60614;SDS011;46444;45.590;5.284;2023-03-23T13:26:23;12.75;;;9.68;;
60614;SDS011;46444;45.590;5.284;2023-03-23T13:34:01;15.82;;;13.98;;
60614;SDS011;46444;45.590;5.284;2023-03-23T13:39:23;24.92;;;22.75;;
60614;SDS011;46444;45.590;5.284;2023-03-23T13:44:26;22.55;;;20.63;;
60614;SDS011;46444;45.590;5.284;2023-03-23T13:46:53;24.02;;;21.92;;
60614;SDS011;46444;45.590;5.284;2023-03-23T13:49:20;23.45;;;21.67;;
60614;SDS011;46444;45.590;5.284;2023-03-23T13:59:55;25.77;;;23.77;;
60614;SDS011;46444;45.590;5.284;2023-03-23T14:04:55;23.05;;;21.35;;
60614;SDS011;46444;45.590;5.284;2023-03-23T14:07:21;22.08;;;20.23;;
60614;SDS011;46444;45.590;5.284;2023-03-23T14:09:49;21.02;;;19.42;;
60614;SDS011;46444;45.590;5.284;2023-03-23T14:12:20;50.90;;;47.50;;
60614;SDS011;46444;45.590;5.284;2023-03-23T14:14:51;30.70;;;28.13;;
60614;SDS011;46444;45.590;5.284;2023-03-23T14:17:27;44.80;;;41.78;;
60614;SDS011;46444;45.590;5.284;2023-03-23T14:19:55;14.05;;;12.90;;
60614;SDS011;46444;45.590;5.284;2023-03-23T14:22:24;24.55;;;22.70;;
60614;SDS011;46444;45.590;5.284;2023-03-23T14:24:49;16.20;;;14.70;;
60614;SDS011;46444;45.590;5.284;2023-03-23T14:27:17;17.10;;;15.48;;
60614;SDS011;46444;45.590;5.284;2023-03-23T14:29:44;16.15;;;14.80;;
60614;SDS011;46444;45.590;5.284;2023-03-23T14:32:12;24.05;;;22.05;;
60614;SDS011;46444;45.590;5.284;2023-03-23T14:34:40;19.35;;;17.65;;
60614;SDS011;46444;45.590;5.284;2023-03-23T14:37:08;16.58;;;15.07;;
60614;SDS011;46444;45.590;5.284;2023-03-23T14:39:37;12.07;;;10.82;;
60614;SDS011;46444;45.590;5.284;2023-03-23T14:42:13;11.73;;;9.10;;
60614;SDS011;46444;45.590;5.284;2023-03-23T14:44:41;9.73;;;8.77;;
60614;SDS011;46444;45.590;5.284;2023-03-23T14:49:57;13.35;;;9.73;;
60614;SDS011;46444;45.590;5.284;2023-03-23T14:52:26;13.80;;;11.60;;
60614;SDS011;46444;45.590;5.284;2023-03-23T14:54:53;11.60;;;8.70;;
60614;SDS011;46444;45.590;5.284;2023-03-23T14:59:45;8.88;;;7.68;;
60614;SDS011;46444;45.590;5.284;2023-03-23T15:02:14;9.73;;;8.73;;
60614;SDS011;46444;45.590;5.284;2023-03-23T15:05:13;9.65;;;8.65;;
60614;SDS011;46444;45.590;5.284;2023-03-23T15:07:45;10.98;;;9.05;;
60614;SDS011;46444;45.590;5.284;2023-03-23T15:10:16;9.70;;;8.55;;
60614;SDS011;46444;45.590;5.284;2023-03-23T15:12:44;10.93;;;8.52;;
60614;SDS011;46444;45.590;5.284;2023-03-23T15:15:18;12.68;;;9.18;;
60614;SDS011;46444;45.590;5.284;2023-03-23T15:17:50;12.40;;;10.27;;
60614;SDS011;46444;45.590;5.284;2023-03-23T15:23:16;13.88;;;12.23;;
60614;SDS011;46444;45.590;5.284;2023-03-23T15:25:53;12.98;;;11.63;;
60614;SDS011;46444;45.590;5.284;2023-03-23T15:28:30;9.90;;;9.00;;
60614;SDS011;46444;45.590;5.284;2023-03-23T15:30:57;10.57;;;9.25;;
60614;SDS011;46444;45.590;5.284;2023-03-23T15:33:33;9.43;;;8.52;;
60614;SDS011;46444;45.590;5.284;2023-03-23T15:35:59;11.45;;;10.15;;
60614;SDS011;46444;45.590;5.284;2023-03-23T15:38:34;12.38;;;9.82;;
60614;SDS011;46444;45.590;5.284;2023-03-23T15:41:19;8.82;;;7.93;;
60614;SDS011;46444;45.590;5.284;2023-03-23T15:43:51;8.85;;;7.97;;
60614;SDS011;46444;45.590;5.284;2023-03-23T15:48:52;9.05;;;7.93;;
60614;SDS011;46444;45.590;5.284;2023-03-23T15:51:20;9.45;;;8.65;;
60614;SDS011;46444;45.590;5.284;2023-03-23T15:53:47;10.70;;;9.18;;
60614;SDS011;46444;45.590;5.284;2023-03-23T15:56:14;9.85;;;8.77;;
60614;SDS011;46444;45.590;5.284;2023-03-23T15:58:40;9.77;;;8.80;;
60614;SDS011;46444;45.590;5.284;2023-03-23T16:01:25;13.75;;;10.25;;
60614;SDS011;46444;45.590;5.284;2023-03-23T16:03:54;10.88;;;9.50;;
60614;SDS011;46444;45.590;5.284;2023-03-23T16:06:23;15.80;;;14.35;;
60614;SDS011;46444;45.590;5.284;2023-03-23T16:08:50;12.35;;;9.43;;
60614;SDS011;46444;45.590;5.284;2023-03-23T16:11:16;10.48;;;8.77;;
60614;SDS011;46444;45.590;5.284;2023-03-23T16:13:43;8.70;;;7.55;;
60614;SDS011;46444;45.590;5.284;2023-03-23T16:16:21;8.75;;;7.28;;
60614;SDS011;46444;45.590;5.284;2023-03-23T16:18:48;10.30;;;7.25;;
60614;SDS011;46444;45.590;5.284;2023-03-23T16:21:13;10.30;;;7.57;;
60614;SDS011;46444;45.590;5.284;2023-03-23T16:23:39;9.30;;;6.82;;
60614;SDS011;46444;45.590;5.284;2023-03-23T16:26:08;11.93;;;7.50;;
60614;SDS011;46444;45.590;5.284;2023-03-23T16:28:33;8.80;;;7.80;;
60614;SDS011;46444;45.590;5.284;2023-03-23T16:30:58;9.00;;;7.72;;
60614;SDS011;46444;45.590;5.284;2023-03-23T16:33:24;9.23;;;6.60;;
60614;SDS011;46444;45.590;5.284;2023-03-23T16:35:49;8.25;;;7.45;;
60614;SDS011;46444;45.590;5.284;2023-03-23T16:38:15;10.70;;;7.65;;
60614;SDS011;46444;45.590;5.284;2023-03-23T16:40:44;11.32;;;8.40;;
60614;SDS011;46444;45.590;5.284;2023-03-23T16:43:11;8.68;;;7.80;;
60614;SDS011;46444;45.590;5.284;2023-03-23T16:45:37;12.25;;;8.27;;
60614;SDS011;46444;45.590;5.284;2023-03-23T16:48:05;11.15;;;8.90;;
60614;SDS011;46444;45.590;5.284;2023-03-23T16:50:32;9.82;;;7.95;;
60614;SDS011;46444;45.590;5.284;2023-03-23T16:52:57;10.32;;;8.52;;
60614;SDS011;46444;45.590;5.284;2023-03-23T16:55:23;10.15;;;8.15;;
60614;SDS011;46444;45.590;5.284;2023-03-23T16:57:50;9.98;;;8.98;;
60614;SDS011;46444;45.590;5.284;2023-03-23T17:00:16;13.35;;;12.00;;
60614;SDS011;46444;45.590;5.284;2023-03-23T17:02:44;15.50;;;13.93;;
60614;SDS011;46444;45.590;5.284;2023-03-23T17:05:11;13.93;;;12.38;;
60614;SDS011;46444;45.590;5.284;2023-03-23T17:07:37;17.85;;;16.70;;
60614;SDS011;46444;45.590;5.284;2023-03-23T17:10:03;19.75;;;17.92;;
60614;SDS011;46444;45.590;5.284;2023-03-23T17:12:30;18.38;;;16.67;;
60614;SDS011;46444;45.590;5.284;2023-03-23T17:14:56;22.33;;;20.58;;
60614;SDS011;46444;45.590;5.284;2023-03-23T17:17:22;24.92;;;22.98;;
60614;SDS011;46444;45.590;5.284;2023-03-23T17:19:48;24.15;;;22.10;;
60614;SDS011;46444;45.590;5.284;2023-03-23T17:22:13;20.25;;;18.60;;
60614;SDS011;46444;45.590;5.284;2023-03-23T17:24:39;20.70;;;18.95;;
60614;SDS011;46444;45.590;5.284;2023-03-23T17:27:04;26.23;;;24.30;;
60614;SDS011;46444;45.590;5.284;2023-03-23T17:29:30;24.90;;;22.95;;
60614;SDS011;46444;45.590;5.284;2023-03-23T17:31:56;23.27;;;21.48;;
60614;SDS011;46444;45.590;5.284;2023-03-23T17:34:21;15.52;;;14.30;;
60614;SDS011;46444;45.590;5.284;2023-03-23T17:36:46;19.70;;;18.05;;
60614;SDS011;46444;45.590;5.284;2023-03-23T17:39:12;20.67;;;19.27;;